Time;durP1;ratioP1;P1;durP2;ratioP2;P2;SDS_P1;SDS_P2;PMS_P1;PMS_P2;Temp;Humidity;BMP_temperature;BMP_pressure;BME280_temperature;BME280_humidity;BME280_pressure;Samples;Min_cycle;Max_cycle;Signal;HPM_P1;HPM_P2
2023/04/16 00:00:49;;;;;;;18.47;8.50;;;6.90;99.90;;;;;;4066678;29;20040;-61
2023/04/16 00:02:50;;;;;;;18.07;8.53;;;6.70;99.90;;;;;;4078838;29;20546;-63
2023/04/16 00:04:51;;;;;;;17.47;8.83;;;6.70;99.90;;;;;;4076760;29;20085;-62
2023/04/16 00:06:53;;;;;;;17.63;8.70;;;6.60;99.90;;;;;;4078055;28;20040;-63
2023/04/16 00:08:54;;;;;;;17.43;8.60;;;6.50;99.90;;;;;;4078863;29;20070;-63
2023/04/16 00:10:55;;;;;;;16.40;8.33;;;6.50;99.90;;;;;;4077751;29;20117;-69
2023/04/16 00:12:57;;;;;;;15.97;9.57;;;6.40;99.90;;;;;;4080059;28;20097;-68
2023/04/16 00:14:58;;;;;;;19.83;8.60;;;6.40;99.90;;;;;;4078108;29;20028;-63
2023/04/16 00:16:59;;;;;;;16.47;8.97;;;6.40;99.90;;;;;;4078651;29;20051;-63
2023/04/16 00:19:00;;;;;;;14.73;8.23;;;6.40;99.90;;;;;;4078189;28;20040;-68
2023/04/16 00:21:02;;;;;;;16.73;9.40;;;6.30;99.90;;;;;;4072209;29;20036;-63
2023/04/16 00:23:03;;;;;;;17.57;9.20;;;6.30;99.90;;;;;;4062121;29;20102;-62
2023/04/16 00:25:04;;;;;;;16.10;8.80;;;6.30;99.90;;;;;;4063494;29;20102;-62
2023/04/16 00:27:05;;;;;;;17.13;8.60;;;6.30;99.90;;;;;;4062370;29;20029;-62
2023/04/16 00:29:07;;;;;;;19.50;8.53;;;6.30;99.90;;;;;;4078032;29;20044;-63
2023/04/16 00:31:08;;;;;;;18.80;8.83;;;6.30;99.90;;;;;;4071328;29;20043;-61
2023/04/16 00:33:09;;;;;;;12.97;7.40;;;6.30;99.90;;;;;;4062870;29;20102;-61
2023/04/16 00:35:10;;;;;;;17.10;9.73;;;6.30;99.90;;;;;;4063099;29;20040;-63
2023/04/16 00:37:11;;;;;;;18.53;8.73;;;6.30;99.90;;;;;;4067127;29;20052;-63
2023/04/16 00:39:12;;;;;;;17.07;9.07;;;6.30;99.90;;;;;;4070959;28;20106;-61
2023/04/16 00:41:13;;;;;;;12.57;7.03;;;6.30;99.90;;;;;;4079326;28;20047;-61
2023/04/16 00:43:25;;;;;;;17.03;8.27;;;6.30;99.90;;;;;;4078741;29;20044;-62
2023/04/16 00:45:26;;;;;;;10.47;5.90;;;6.30;99.90;;;;;;4077528;29;20079;-62
2023/04/16 00:47:27;;;;;;;10.33;5.90;;;6.20;99.90;;;;;;4079750;28;20401;-62
2023/04/16 00:49:30;;;;;;;11.00;6.20;;;6.10;99.90;;;;;;4077536;29;20039;-62
2023/04/16 00:51:31;;;;;;;10.63;5.87;;;6.00;99.90;;;;;;4078168;29;20052;-63
2023/04/16 00:53:33;;;;;;;8.70;5.67;;;5.80;99.90;;;;;;4077242;29;20024;-64
2023/04/16 00:55:35;;;;;;;8.97;5.50;;;5.70;99.90;;;;;;4078590;29;20032;-62
2023/04/16 00:57:36;;;;;;;8.77;4.70;;;5.80;99.90;;;;;;4077407;29;20031;-62
2023/04/16 00:59:37;;;;;;;9.03;5.63;;;5.70;99.90;;;;;;4079464;28;20040;-62
2023/04/16 01:01:38;;;;;;;8.50;4.53;;;5.70;99.90;;;;;;4077366;29;20078;-63
2023/04/16 01:03:47;;;;;;;11.70;5.77;;;5.60;99.90;;;;;;4078653;29;20031;-71
2023/04/16 01:05:49;;;;;;;8.03;5.00;;;5.70;99.90;;;;;;4079795;29;20020;-62
2023/04/16 01:07:50;;;;;;;12.43;5.93;;;5.70;99.90;;;;;;4080950;28;20376;-65
2023/04/16 01:09:51;;;;;;;12.20;6.00;;;5.60;99.90;;;;;;4080629;29;20043;-63
2023/04/16 01:11:53;;;;;;;10.23;5.43;;;5.70;99.90;;;;;;4069447;29;20032;-63
2023/04/16 01:13:54;;;;;;;10.83;6.33;;;5.70;99.90;;;;;;4064976;29;20028;-62
2023/04/16 01:15:55;;;;;;;11.53;5.60;;;5.70;99.90;;;;;;4065381;28;20098;-62
2023/04/16 01:17:56;;;;;;;7.83;5.60;;;5.70;99.90;;;;;;4065654;29;20043;-61
2023/04/16 01:20:00;;;;;;;8.17;5.83;;;5.70;99.90;;;;;;4063886;29;20450;-62
2023/04/16 01:22:02;;;;;;;12.10;5.20;;;5.70;99.90;;;;;;4065711;29;20044;-62
2023/04/16 01:24:04;;;;;;;10.37;5.23;;;5.70;99.90;;;;;;4078813;29;20499;-63
2023/04/16 01:26:05;;;;;;;11.97;5.53;;;5.80;99.90;;;;;;4075704;29;20032;-61
2023/04/16 01:28:06;;;;;;;10.20;6.33;;;5.80;99.90;;;;;;4063752;29;20102;-62
2023/04/16 01:30:08;;;;;;;20.90;10.07;;;5.70;99.90;;;;;;4065499;29;20035;-62
2023/04/16 01:32:09;;;;;;;21.27;11.87;;;5.70;99.90;;;;;;4067002;29;20035;-64
2023/04/16 01:34:11;;;;;;;31.27;15.70;;;5.70;99.90;;;;;;4080810;29;20101;-62
2023/04/16 01:36:12;;;;;;;52.43;25.00;;;5.70;99.90;;;;;;4079668;29;20035;-64
2023/04/16 01:38:13;;;;;;;58.50;28.87;;;5.70;99.90;;;;;;4081309;28;20052;-61
2023/04/16 01:40:14;;;;;;;66.27;31.70;;;5.70;99.90;;;;;;4080334;29;20040;-62
2023/04/16 01:42:15;;;;;;;56.97;28.33;;;5.70;99.90;;;;;;4080109;29;20449;-63
2023/04/16 01:44:16;;;;;;;52.63;24.97;;;5.70;99.90;;;;;;4081068;28;20052;-61
2023/04/16 01:46:23;;;;;;;44.23;23.60;;;5.70;99.90;;;;;;4079639;29;20051;-64
2023/04/16 01:48:25;;;;;;;42.57;20.00;;;5.70;99.90;;;;;;4080027;29;20051;-62
2023/04/16 01:50:26;;;;;;;39.07;18.27;;;5.70;99.90;;;;;;4079862;29;20031;-62
2023/04/16 01:52:27;;;;;;;33.93;17.60;;;5.70;99.90;;;;;;4082083;28;20044;-63
2023/04/16 01:54:28;;;;;;;33.17;16.47;;;5.70;99.90;;;;;;4079657;29;20101;-63
2023/04/16 01:56:29;;;;;;;35.33;14.80;;;5.70;99.90;;;;;;4080400;29;20052;-62
2023/04/16 01:58:32;;;;;;;29.10;14.90;;;5.70;99.90;;;;;;4079867;29;20073;-64
2023/04/16 02:00:33;;;;;;;23.80;12.83;;;5.70;99.90;;;;;;4078323;29;20090;-61
2023/04/16 02:02:35;;;;;;;21.83;11.50;;;5.70;99.90;;;;;;4078659;29;20043;-61
2023/04/16 02:04:40;;;;;;;17.63;9.83;;;5.60;99.90;;;;;;4081682;28;20109;-63
2023/04/16 02:06:41;;;;;;;18.20;9.73;;;5.70;99.90;;;;;;4079096;28;20052;-63
2023/04/16 02:08:42;;;;;;;19.97;10.50;;;5.60;99.90;;;;;;4070444;29;20094;-62
2023/04/16 02:10:48;;;;;;;22.33;10.47;;;5.60;99.90;;;;;;4064380;29;20044;-62
2023/04/16 02:12:49;;;;;;;13.07;7.67;;;5.60;99.90;;;;;;4064239;29;20094;-66
2023/04/16 02:14:51;;;;;;;15.97;7.73;;;5.60;99.90;;;;;;4063873;29;20086;-62
2023/04/16 02:16:52;;;;;;;14.33;7.03;;;5.60;99.90;;;;;;4063530;29;20083;-66
2023/04/16 02:18:53;;;;;;;11.53;6.83;;;5.60;99.90;;;;;;4065334;28;20071;-62
2023/04/16 02:20:58;;;;;;;14.03;7.87;;;5.50;99.90;;;;;;4063135;29;20056;-63
2023/04/16 02:22:59;;;;;;;14.83;7.17;;;5.50;99.90;;;;;;4064041;29;20431;-62
2023/04/16 02:25:00;;;;;;;14.27;6.87;;;5.50;99.90;;;;;;4063500;29;20040;-62
2023/04/16 02:27:02;;;;;;;16.40;7.80;;;5.50;99.90;;;;;;4065603;28;20095;-63
2023/04/16 02:29:03;;;;;;;11.17;7.17;;;5.40;99.90;;;;;;4076593;29;20651;-62
2023/04/16 02:31:05;;;;;;;12.87;6.80;;;5.40;99.90;;;;;;4065499;29;20087;-66
2023/04/16 02:33:08;;;;;;;11.17;6.40;;;5.30;99.90;;;;;;4063334;29;20836;-62
2023/04/16 02:35:09;;;;;;;12.33;7.03;;;5.30;99.90;;;;;;4064653;29;20032;-62
2023/04/16 02:37:10;;;;;;;13.20;6.53;;;5.20;99.90;;;;;;4071859;28;20044;-62
2023/04/16 02:39:11;;;;;;;12.87;6.30;;;5.20;99.90;;;;;;4080318;29;20082;-62
2023/04/16 02:41:13;;;;;;;11.43;5.27;;;5.00;99.90;;;;;;4079642;29;20483;-62
2023/04/16 02:43:14;;;;;;;11.83;6.80;;;4.90;99.90;;;;;;4080157;29;20158;-61
2023/04/16 02:45:15;;;;;;;15.10;7.70;;;4.80;99.90;;;;;;4079488;29;20032;-62
2023/04/16 02:47:16;;;;;;;24.67;11.67;;;4.70;99.90;;;;;;4079700;29;20036;-62
2023/04/16 02:49:17;;;;;;;18.03;9.83;;;4.60;99.90;;;;;;4079545;29;20028;-63
2023/04/16 02:51:19;;;;;;;17.00;8.53;;;4.50;99.90;;;;;;4079198;29;20036;-64
2023/04/16 02:53:20;;;;;;;15.80;7.80;;;4.50;99.90;;;;;;4079822;29;20589;-63
2023/04/16 02:55:21;;;;;;;10.83;7.17;;;4.40;99.90;;;;;;4078636;29;20037;-62
2023/04/16 02:57:22;;;;;;;14.00;7.87;;;4.40;99.90;;;;;;4065447;28;20090;-63
2023/04/16 02:59:23;;;;;;;17.47;8.53;;;4.30;99.90;;;;;;4062641;29;20321;-63
2023/04/16 03:01:24;;;;;;;11.77;7.33;;;4.30;99.90;;;;;;4064325;29;20263;-61
2023/04/16 03:03:25;;;;;;;11.73;7.77;;;4.40;99.90;;;;;;4063275;29;20040;-62
2023/04/16 03:05:27;;;;;;;14.17;8.53;;;4.40;99.90;;;;;;4073228;29;20278;-62
2023/04/16 03:07:28;;;;;;;12.17;7.83;;;4.50;99.90;;;;;;4079712;28;20753;-62
2023/04/16 03:09:29;;;;;;;13.80;8.17;;;4.50;99.90;;;;;;4052688;29;20338;-61
2023/04/16 03:11:30;;;;;;;14.03;7.97;;;4.60;99.90;;;;;;4063592;29;20032;-64
2023/04/16 03:13:31;;;;;;;15.03;8.20;;;4.70;99.90;;;;;;4064066;29;20086;-63
2023/04/16 03:15:32;;;;;;;14.57;8.87;;;4.60;99.90;;;;;;4046148;29;20060;-62
2023/04/16 03:17:34;;;;;;;15.50;7.37;;;4.60;99.90;;;;;;4063252;29;20048;-63
2023/04/16 03:19:35;;;;;;;13.80;8.07;;;4.60;99.90;;;;;;4063599;29;20398;-68
2023/04/16 03:21:36;;;;;;;15.40;8.23;;;4.60;99.90;;;;;;4063307;29;20044;-62
2023/04/16 03:23:37;;;;;;;13.57;9.10;;;4.60;99.90;;;;;;4063464;29;20666;-62
2023/04/16 03:25:39;;;;;;;20.73;8.17;;;4.60;99.90;;;;;;4063043;29;20306;-62
2023/04/16 03:27:40;;;;;;;13.17;8.37;;;4.60;99.90;;;;;;4063613;29;20098;-62
2023/04/16 03:29:41;;;;;;;14.23;8.43;;;4.50;99.90;;;;;;4062880;29;20028;-62
2023/04/16 03:31:43;;;;;;;17.07;9.27;;;4.50;99.90;;;;;;4064067;29;20259;-61
2023/04/16 03:33:44;;;;;;;16.60;8.03;;;4.50;99.90;;;;;;4062640;29;20099;-62
2023/04/16 03:35:45;;;;;;;14.47;7.87;;;4.50;99.90;;;;;;4064113;29;20271;-63
2023/04/16 03:37:47;;;;;;;17.20;7.87;;;4.40;99.90;;;;;;4074413;29;20336;-63
2023/04/16 03:39:48;;;;;;;12.10;8.00;;;4.40;99.90;;;;;;4080554;28;20066;-66
2023/04/16 03:41:49;;;;;;;14.37;8.37;;;4.30;99.90;;;;;;4078293;29;20324;-66
2023/04/16 03:43:50;;;;;;;12.23;8.00;;;4.30;99.90;;;;;;4078741;29;20274;-62
2023/04/16 03:45:52;;;;;;;12.13;7.87;;;4.30;99.90;;;;;;4077800;29;20340;-62
2023/04/16 03:47:53;;;;;;;14.90;8.73;;;4.20;99.90;;;;;;4079367;29;20039;-63
2023/04/16 03:49:54;;;;;;;13.90;8.47;;;4.20;99.90;;;;;;4066117;29;20326;-62
2023/04/16 03:51:55;;;;;;;16.07;9.33;;;4.20;99.90;;;;;;4062955;29;20325;-63
2023/04/16 03:53:56;;;;;;;13.03;8.20;;;4.30;99.90;;;;;;4076517;29;20317;-62
2023/04/16 03:55:58;;;;;;;17.37;7.90;;;4.30;99.90;;;;;;4078357;29;20301;-69
2023/04/16 03:58:01;;;;;;;11.80;7.23;;;4.40;99.90;;;;;;4079419;29;20308;-62
2023/04/16 04:00:03;;;;;;;12.77;7.57;;;4.50;99.90;;;;;;4067332;28;20282;-63
2023/04/16 04:02:04;;;;;;;12.87;7.53;;;4.50;99.90;;;;;;4070576;29;20344;-62
2023/04/16 04:04:08;;;;;;;14.67;8.37;;;4.50;99.90;;;;;;4072774;28;20290;-62
2023/04/16 04:06:09;;;;;;;13.93;6.97;;;4.60;99.90;;;;;;4047012;29;20263;-60
2023/04/16 04:08:10;;;;;;;12.87;8.53;;;4.60;99.90;;;;;;4062206;28;20279;-62
2023/04/16 04:10:11;;;;;;;13.47;8.70;;;4.50;99.90;;;;;;4063057;29;20291;-62
2023/04/16 04:12:12;;;;;;;14.07;8.07;;;4.50;99.90;;;;;;4062748;29;20306;-62
2023/04/16 04:14:14;;;;;;;14.13;8.40;;;4.50;99.90;;;;;;4062987;29;20266;-65
2023/04/16 04:16:15;;;;;;;16.07;8.03;;;4.50;99.90;;;;;;4062345;29;20259;-61
2023/04/16 04:18:16;;;;;;;13.77;7.43;;;4.50;99.90;;;;;;4063077;29;20766;-70
2023/04/16 04:20:17;;;;;;;11.10;7.23;;;4.60;99.90;;;;;;4062674;29;20250;-62
2023/04/16 04:22:19;;;;;;;16.67;7.47;;;4.60;99.90;;;;;;4062851;29;20271;-62
2023/04/16 04:24:20;;;;;;;15.80;7.97;;;4.70;99.90;;;;;;4062680;29;20259;-63
2023/04/16 04:26:21;;;;;;;14.43;7.87;;;4.80;99.90;;;;;;4069313;29;20287;-63
2023/04/16 04:28:22;;;;;;;13.17;8.10;;;4.80;99.90;;;;;;4070582;29;20360;-62
2023/04/16 04:30:24;;;;;;;11.00;7.23;;;4.80;99.90;;;;;;4068028;29;20298;-63
2023/04/16 04:32:25;;;;;;;12.17;7.80;;;4.80;99.90;;;;;;4063389;29;20859;-61
2023/04/16 04:34:26;;;;;;;16.93;7.33;;;4.90;99.90;;;;;;4062194;29;20357;-62
2023/04/16 04:36:27;;;;;;;16.27;7.07;;;5.10;99.90;;;;;;4062622;29;20439;-62
2023/04/16 04:38:29;;;;;;;15.43;7.17;;;5.20;99.90;;;;;;4069981;29;20090;-63
2023/04/16 04:40:30;;;;;;;15.00;8.13;;;5.30;99.90;;;;;;4065181;29;20075;-61
2023/04/16 04:42:31;;;;;;;9.00;6.00;;;5.30;99.90;;;;;;4073140;29;20426;-62
2023/04/16 04:44:32;;;;;;;13.17;7.17;;;5.40;99.90;;;;;;4081534;28;20090;-62
2023/04/16 04:46:34;;;;;;;14.70;6.13;;;5.60;99.90;;;;;;4080287;29;20040;-62
2023/04/16 04:48:35;;;;;;;14.50;6.97;;;6.10;99.90;;;;;;4081428;29;20074;-63
2023/04/16 04:50:36;;;;;;;10.57;7.03;;;6.70;99.90;;;;;;4080428;29;20059;-68
2023/04/16 04:52:37;;;;;;;13.00;7.10;;;7.20;99.90;;;;;;4081908;28;20094;-67
2023/04/16 04:54:40;;;;;;;13.10;7.00;;;7.60;99.90;;;;;;4081629;28;20081;-63
2023/04/16 04:56:44;;;;;;;10.63;6.37;;;8.00;99.90;;;;;;4081042;28;20070;-66
2023/04/16 04:58:45;;;;;;;12.87;6.93;;;8.20;99.90;;;;;;4080967;29;20040;-62
2023/04/16 05:00:46;;;;;;;13.57;6.37;;;8.40;99.90;;;;;;4080490;29;20094;-62
2023/04/16 05:02:48;;;;;;;11.63;6.27;;;8.60;99.90;;;;;;4081091;29;20039;-62
2023/04/16 05:04:49;;;;;;;12.83;7.13;;;9.00;99.90;;;;;;4080493;29;20517;-66
2023/04/16 05:06:50;;;;;;;10.53;6.70;;;9.10;99.90;;;;;;4073437;28;20093;-63
2023/04/16 05:08:51;;;;;;;15.43;6.53;;;9.20;99.90;;;;;;4079748;29;20499;-64
2023/04/16 05:10:53;;;;;;;9.33;5.27;;;9.30;99.90;;;;;;4076971;29;20044;-63
2023/04/16 05:12:54;;;;;;;12.83;6.27;;;9.30;99.90;;;;;;4047406;29;20048;-60
2023/04/16 05:14:55;;;;;;;9.90;5.87;;;9.20;99.90;;;;;;4065726;29;20032;-61
2023/04/16 05:16:56;;;;;;;9.20;6.40;;;9.00;99.90;;;;;;4064574;29;20036;-63
2023/04/16 05:18:57;;;;;;;9.63;6.13;;;8.90;99.90;;;;;;4065576;29;20032;-72
2023/04/16 05:20:58;;;;;;;9.97;7.03;;;8.90;99.90;;;;;;4064641;29;20032;-61
2023/04/16 05:23:00;;;;;;;10.23;6.73;;;8.80;99.90;;;;;;4065010;29;20059;-65
2023/04/16 05:25:01;;;;;;;9.00;6.03;;;8.70;99.90;;;;;;4064888;29;20067;-62
2023/04/16 05:27:02;;;;;;;10.67;6.60;;;8.60;99.90;;;;;;4078515;29;20036;-62
2023/04/16 05:29:03;;;;;;;9.77;6.93;;;8.40;99.90;;;;;;4081546;28;20047;-63
2023/04/16 05:31:05;;;;;;;9.87;6.57;;;8.20;99.90;;;;;;4079950;29;20595;-62
2023/04/16 05:33:06;;;;;;;10.20;6.70;;;8.20;99.90;;;;;;4079614;29;20039;-62
2023/04/16 05:35:08;;;;;;;10.50;7.07;;;8.40;99.90;;;;;;4074135;29;20090;-62
2023/04/16 05:37:09;;;;;;;10.00;6.73;;;8.80;99.90;;;;;;4065471;29;20101;-62
2023/04/16 05:39:10;;;;;;;14.87;6.97;;;9.00;99.90;;;;;;4064107;29;20056;-66
2023/04/16 05:41:12;;;;;;;12.93;7.83;;;9.00;99.90;;;;;;4065821;29;20447;-64
2023/04/16 05:43:13;;;;;;;11.83;7.23;;;9.40;99.90;;;;;;4064293;29;20570;-64
2023/04/16 05:45:14;;;;;;;8.97;6.63;;;10.10;99.90;;;;;;4066424;29;20044;-64
2023/04/16 05:47:16;;;;;;;11.63;6.47;;;10.70;99.90;;;;;;4080702;28;20032;-65
2023/04/16 05:49:21;;;;;;;9.33;6.37;;;11.10;99.90;;;;;;4081558;28;20109;-62
2023/04/16 05:51:24;;;;;;;9.70;5.50;;;12.00;99.90;;;;;;4078196;29;20075;-62
2023/04/16 05:53:25;;;;;;;9.43;5.30;;;11.90;99.90;;;;;;4080646;29;20426;-63
2023/04/16 05:55:26;;;;;;;8.47;5.63;;;12.10;99.90;;;;;;4080235;29;20454;-65
2023/04/16 05:57:28;;;;;;;11.40;5.70;;;12.80;99.90;;;;;;4080344;29;20082;-66
2023/04/16 05:59:30;;;;;;;9.90;5.60;;;13.40;99.90;;;;;;4064082;28;20040;-64
2023/04/16 06:01:32;;;;;;;11.37;6.50;;;14.00;99.90;;;;;;4078035;29;20044;-63
2023/04/16 06:03:33;;;;;;;8.70;5.57;;;14.10;99.90;;;;;;4050457;28;20033;-64
2023/04/16 06:05:34;;;;;;;8.87;5.20;;;14.90;99.90;;;;;;4049737;28;20087;-70
2023/04/16 06:07:35;;;;;;;7.63;5.47;;;15.40;99.90;;;;;;4068518;29;20098;-63
2023/04/16 06:09:36;;;;;;;6.10;5.23;;;16.00;99.90;;;;;;4063372;29;20048;-71
2023/04/16 06:11:38;;;;;;;8.77;5.17;;;16.20;99.90;;;;;;4065594;29;20073;-66
2023/04/16 06:13:39;;;;;;;6.97;5.07;;;16.40;99.90;;;;;;4063040;28;20095;-63
2023/04/16 06:15:40;;;;;;;9.33;4.87;;;16.70;99.80;;;;;;4065218;29;20028;-64
2023/04/16 06:17:41;;;;;;;6.97;4.80;;;16.80;98.80;;;;;;4069678;29;20558;-61
2023/04/16 06:19:42;;;;;;;6.75;4.65;;;17.20;98.40;;;;;;4065226;29;20083;-64
2023/04/16 06:21:44;;;;;;;7.68;5.45;;;17.10;97.60;;;;;;4065110;28;20047;-61
2023/04/16 06:23:45;;;;;;;7.65;5.30;;;17.10;97.60;;;;;;4064793;29;20094;-62
2023/04/16 06:25:46;;;;;;;7.70;5.13;;;16.80;97.30;;;;;;4064056;29;20028;-60
2023/04/16 06:27:47;;;;;;;7.68;5.25;;;16.50;97.50;;;;;;4064466;28;20052;-61
2023/04/16 06:29:49;;;;;;;7.93;6.07;;;16.10;97.70;;;;;;4064391;29;20024;-63
2023/04/16 06:31:50;;;;;;;7.55;5.82;;;16.00;97.80;;;;;;4070113;28;20110;-65
2023/04/16 06:33:51;;;;;;;8.45;5.30;;;16.00;97.70;;;;;;4075788;29;20040;-72
2023/04/16 06:35:52;;;;;;;8.98;5.35;;;16.40;97.70;;;;;;4072252;29;20098;-63
2023/04/16 06:37:54;;;;;;;7.78;4.88;;;16.70;97.10;;;;;;4063948;29;20032;-65
2023/04/16 06:39:55;;;;;;;7.90;5.18;;;16.10;97.00;;;;;;4063348;29;20488;-73
2023/04/16 06:41:56;;;;;;;7.20;4.65;;;15.60;97.40;;;;;;4077622;29;20039;-65
2023/04/16 06:43:57;;;;;;;7.90;5.13;;;15.10;98.00;;;;;;4078564;29;20043;-70
2023/04/16 06:45:59;;;;;;;6.90;4.85;;;15.00;98.70;;;;;;4080448;29;20050;-67
2023/04/16 06:48:02;;;;;;;5.50;4.25;;;15.60;98.60;;;;;;4080073;29;20438;-66
2023/04/16 06:50:03;;;;;;;7.93;4.43;;;15.80;97.80;;;;;;4062824;28;20043;-63
2023/04/16 06:52:04;;;;;;;5.45;4.28;;;15.50;97.60;;;;;;4079186;29;20074;-65
2023/04/16 06:54:05;;;;;;;7.45;5.38;;;15.30;98.00;;;;;;4080557;28;20488;-69
2023/04/16 06:56:07;;;;;;;6.45;4.70;;;15.40;98.20;;;;;;4079405;29;20070;-66
2023/04/16 06:58:08;;;;;;;8.10;4.97;;;15.80;97.90;;;;;;4079481;29;20495;-63
2023/04/16 07:00:10;;;;;;;10.68;4.57;;;16.10;97.60;;;;;;4077783;29;20533;-60
2023/04/16 07:02:12;;;;;;;7.85;4.05;;;16.10;97.10;;;;;;4079116;29;20028;-63
2023/04/16 07:04:13;;;;;;;5.38;3.80;;;15.50;97.20;;;;;;4079602;29;20032;-61
2023/04/16 07:06:14;;;;;;;7.78;4.15;;;15.20;97.40;;;;;;4078127;28;20657;-62
2023/04/16 07:08:15;;;;;;;8.52;4.97;;;14.80;97.80;;;;;;4079767;29;20563;-62
2023/04/16 07:10:17;;;;;;;6.47;4.68;;;14.80;98.30;;;;;;4078776;29;20085;-64
2023/04/16 07:12:19;;;;;;;7.20;4.72;;;14.50;98.40;;;;;;4078700;29;20052;-61
2023/04/16 07:14:20;;;;;;;10.57;4.65;;;14.40;98.90;;;;;;4078863;29;20094;-62
2023/04/16 07:16:21;;;;;;;4.78;3.75;;;14.60;99.10;;;;;;4079585;29;20069;-61
2023/04/16 07:18:22;;;;;;;3.30;2.78;;;14.40;98.90;;;;;;4078810;29;20403;-62
2023/04/16 07:20:24;;;;;;;3.33;2.13;;;14.10;98.80;;;;;;4078606;29;20105;-61
2023/04/16 07:22:25;;;;;;;2.47;2.13;;;14.00;99.10;;;;;;4063097;29;20370;-60
2023/04/16 07:24:26;;;;;;;3.13;2.20;;;13.80;99.30;;;;;;4063692;29;20036;-61
2023/04/16 07:26:27;;;;;;;3.83;2.70;;;13.70;99.20;;;;;;4060191;29;20428;-63
2023/04/16 07:28:28;;;;;;;3.10;1.67;;;13.50;99.40;;;;;;4078969;29;20039;-62
2023/04/16 07:30:33;;;;;;;3.47;2.87;;;13.40;99.60;;;;;;4078676;29;20039;-62
2023/04/16 07:32:34;;;;;;;3.40;2.43;;;13.10;99.90;;;;;;4079137;29;20158;-73
2023/04/16 07:34:35;;;;;;;5.00;3.37;;;13.00;99.90;;;;;;4076859;29;20032;-61
2023/04/16 07:36:36;;;;;;;3.87;2.03;;;12.90;99.90;;;;;;4079442;28;20036;-62
2023/04/16 07:38:37;;;;;;;2.60;2.17;;;12.90;99.90;;;;;;4079532;29;20027;-62
2023/04/16 07:40:38;;;;;;;3.40;2.40;;;12.90;99.90;;;;;;4078064;29;20028;-62
2023/04/16 07:42:40;;;;;;;2.67;2.30;;;12.80;99.90;;;;;;4079272;28;20047;-64
2023/04/16 07:44:41;;;;;;;3.53;2.40;;;12.80;99.90;;;;;;4078650;29;20074;-62
2023/04/16 07:46:42;;;;;;;4.10;2.40;;;12.90;99.90;;;;;;4080359;28;20086;-60
2023/04/16 07:48:43;;;;;;;5.93;2.33;;;12.90;99.90;;;;;;4078528;29;20032;-62
2023/04/16 07:50:44;;;;;;;3.97;1.60;;;12.90;99.90;;;;;;4077380;29;20168;-62
2023/04/16 07:52:46;;;;;;;2.67;2.10;;;12.80;99.90;;;;;;4047505;28;20076;-63
2023/04/16 07:54:47;;;;;;;5.47;3.03;;;12.80;99.90;;;;;;4048154;29;20428;-64
2023/04/16 07:56:48;;;;;;;4.33;3.23;;;12.90;99.90;;;;;;4047246;29;20382;-60
2023/04/16 07:58:49;;;;;;;5.10;3.07;;;13.10;99.90;;;;;;4063866;29;20047;-62
2023/04/16 08:00:51;;;;;;;8.63;2.67;;;13.20;99.90;;;;;;4078732;29;20089;-60
2023/04/16 08:02:52;;;;;;;2.83;2.37;;;13.20;99.90;;;;;;4077726;29;20454;-60
2023/04/16 08:04:53;;;;;;;4.37;2.67;;;13.30;99.90;;;;;;4078607;29;20028;-61
2023/04/16 08:06:54;;;;;;;6.70;2.93;;;13.50;99.90;;;;;;4077793;29;20113;-61
2023/04/16 08:08:55;;;;;;;3.83;2.47;;;13.60;99.90;;;;;;4079838;28;20085;-67
2023/04/16 08:10:57;;;;;;;4.70;2.70;;;13.70;99.90;;;;;;4078281;29;20035;-65
2023/04/16 08:13:02;;;;;;;3.97;3.13;;;13.50;99.90;;;;;;4079610;29;20099;-61
2023/04/16 08:15:04;;;;;;;3.43;2.67;;;13.50;99.90;;;;;;4078072;28;20036;-60
2023/04/16 08:17:05;;;;;;;3.67;2.90;;;13.40;99.90;;;;;;4079247;29;20024;-61
2023/04/16 08:19:06;;;;;;;3.37;2.53;;;13.40;99.90;;;;;;4078809;28;20043;-61
2023/04/16 08:21:08;;;;;;;2.00;1.80;;;13.40;99.90;;;;;;4079238;29;20039;-60
2023/04/16 08:23:09;;;;;;;3.37;2.30;;;13.50;99.90;;;;;;4078694;28;20090;-60
2023/04/16 08:25:10;;;;;;;2.80;2.43;;;13.60;99.90;;;;;;4079304;29;20423;-61
2023/04/16 08:27:11;;;;;;;5.73;2.13;;;13.70;99.90;;;;;;4077627;29;20044;-58
2023/04/16 08:29:12;;;;;;;3.57;2.20;;;13.70;99.90;;;;;;4079868;28;20028;-63
2023/04/16 08:31:14;;;;;;;3.67;2.63;;;13.80;99.80;;;;;;4078141;29;20044;-61
2023/04/16 08:33:15;;;;;;;2.70;2.10;;;14.00;99.70;;;;;;4078672;29;20479;-67
2023/04/16 08:35:16;;;;;;;2.80;1.80;;;14.10;99.50;;;;;;4078658;29;20020;-62
2023/04/16 08:37:18;;;;;;;2.70;2.10;;;14.30;99.40;;;;;;4079017;28;20044;-60
2023/04/16 08:39:21;;;;;;;2.30;1.80;;;14.30;99.30;;;;;;4078236;29;20043;-62
2023/04/16 08:41:23;;;;;;;2.50;1.90;;;14.40;99.50;;;;;;4077881;29;20036;-61
2023/04/16 08:43:25;;;;;;;2.33;2.03;;;14.50;99.40;;;;;;4078980;29;20024;-66
2023/04/16 08:45:27;;;;;;;2.37;1.53;;;14.60;99.10;;;;;;4077616;29;20044;-68
2023/04/16 08:47:32;;;;;;;2.83;2.00;;;14.70;98.50;;;;;;4079049;29;20098;-61
2023/04/16 08:49:37;;;;;;;2.13;1.67;;;14.60;98.50;;;;;;4077380;29;20078;-63
2023/04/16 08:51:42;;;;;;;3.67;1.73;;;14.50;98.50;;;;;;4078766;29;20082;-60
2023/04/16 08:53:57;;;;;;;3.17;1.87;;;14.40;98.80;;;;;;4077711;29;20020;-60
2023/04/16 08:56:02;;;;;;;2.57;1.37;;;14.50;98.70;;;;;;4078489;29;20044;-62
2023/04/16 08:58:15;;;;;;;2.63;1.67;;;14.40;98.90;;;;;;4077784;29;20024;-61
2023/04/16 09:00:16;;;;;;;2.30;1.60;;;14.40;99.00;;;;;;4078868;29;20028;-60
2023/04/16 09:02:17;;;;;;;6.77;1.90;;;14.50;98.80;;;;;;4077753;29;20035;-62
2023/04/16 09:04:20;;;;;;;4.93;1.87;;;14.50;98.60;;;;;;4078856;29;20468;-62
2023/04/16 09:06:21;;;;;;;2.78;1.83;;;14.50;98.70;;;;;;4078460;28;20082;-65
2023/04/16 09:08:24;;;;;;;1.50;1.17;;;14.50;98.80;;;;;;4078601;29;20487;-61
2023/04/16 09:10:26;;;;;;;2.15;1.38;;;14.50;98.70;;;;;;4077550;29;20043;-62
2023/04/16 09:12:28;;;;;;;3.13;1.50;;;14.60;98.20;;;;;;4078520;29;20426;-66
2023/04/16 09:14:30;;;;;;;1.97;1.40;;;14.70;98.20;;;;;;4077849;29;20032;-62
2023/04/16 09:16:33;;;;;;;2.88;1.15;;;14.60;98.20;;;;;;4077909;29;20044;-61
2023/04/16 09:18:34;;;;;;;2.37;1.40;;;14.70;98.10;;;;;;4077993;29;20047;-62
2023/04/16 09:20:35;;;;;;;2.33;1.52;;;14.90;97.90;;;;;;4077472;29;20040;-61
2023/04/16 09:22:38;;;;;;;3.78;1.40;;;15.10;97.50;;;;;;4078359;29;20040;-59
2023/04/16 09:24:40;;;;;;;3.90;1.40;;;15.10;97.10;;;;;;4076931;29;20386;-63
2023/04/16 09:26:45;;;;;;;3.22;1.73;;;15.20;97.20;;;;;;4080190;29;20082;-61
2023/04/16 09:28:49;;;;;;;3.17;1.92;;;15.30;97.10;;;;;;4079818;29;20546;-60
2023/04/16 09:31:06;;;;;;;3.97;1.92;;;15.40;96.90;;;;;;4081256;29;20082;-61
2023/04/16 09:33:21;;;;;;;4.32;2.20;;;15.50;97.00;;;;;;4079894;29;20109;-62
2023/04/16 09:35:22;;;;;;;3.15;1.90;;;15.70;96.90;;;;;;4081085;29;20032;-66
2023/04/16 09:37:30;;;;;;;4.28;1.90;;;15.80;96.90;;;;;;4079449;29;20044;-62
2023/04/16 09:39:31;;;;;;;3.42;2.45;;;15.90;96.80;;;;;;4080505;29;20039;-64
2023/04/16 09:41:38;;;;;;;2.75;1.70;;;15.90;96.50;;;;;;4080135;29;20082;-61
2023/04/16 09:43:39;;;;;;;2.63;1.25;;;15.90;96.40;;;;;;4081117;29;20027;-59
2023/04/16 09:45:47;;;;;;;3.47;1.75;;;16.00;96.50;;;;;;4079965;29;20028;-61
2023/04/16 09:47:48;;;;;;;4.85;1.48;;;15.90;96.00;;;;;;4081022;29;20036;-61
2023/04/16 09:49:50;;;;;;;4.53;1.63;;;15.90;96.30;;;;;;4080482;28;20043;-59
2023/04/16 09:51:54;;;;;;;1.88;1.33;;;16.00;95.80;;;;;;4081549;28;20052;-64
2023/04/16 09:53:56;;;;;;;1.70;1.38;;;16.00;95.90;;;;;;4080490;28;20067;-67
2023/04/16 09:55:58;;;;;;;4.25;1.50;;;16.00;95.90;;;;;;4081017;29;20468;-60
2023/04/16 09:58:00;;;;;;;3.30;1.88;;;16.00;96.00;;;;;;4079784;29;20035;-60
2023/04/16 10:00:04;;;;;;;1.88;1.63;;;15.90;96.00;;;;;;4080747;29;20411;-60
2023/04/16 10:02:08;;;;;;;1.98;1.52;;;16.00;95.80;;;;;;4079791;29;20480;-60
2023/04/16 10:04:09;;;;;;;1.73;1.30;;;15.90;95.70;;;;;;4080104;29;20121;-61
2023/04/16 10:06:19;;;;;;;2.30;1.60;;;16.00;95.60;;;;;;4080947;28;20093;-61
2023/04/16 10:08:20;;;;;;;1.60;1.50;;;16.00;95.30;;;;;;4079544;28;20154;-59
2023/04/16 10:10:22;;;;;;;3.33;2.10;;;16.10;95.50;;;;;;4081063;28;20094;-61
2023/04/16 10:12:23;;;;;;;5.18;2.05;;;16.20;95.50;;;;;;4079480;29;20060;-60
2023/04/16 10:14:24;;;;;;;3.20;1.85;;;16.40;95.10;;;;;;4080127;29;20451;-60
2023/04/16 10:16:26;;;;;;;4.72;1.67;;;16.60;95.10;;;;;;4080398;28;20044;-60
2023/04/16 10:18:28;;;;;;;2.30;1.50;;;16.60;94.60;;;;;;4080768;29;20094;-60
2023/04/16 10:20:29;;;;;;;5.43;1.95;;;16.50;94.70;;;;;;4080375;28;20048;-60
2023/04/16 10:22:30;;;;;;;2.60;1.42;;;16.60;93.90;;;;;;4081485;28;20044;-59
2023/04/16 10:24:33;;;;;;;2.20;1.17;;;16.50;93.80;;;;;;4080682;28;20051;-61
2023/04/16 10:26:35;;;;;;;2.28;1.40;;;16.50;93.70;;;;;;4080726;29;20028;-63
2023/04/16 10:28:36;;;;;;;2.33;1.00;;;16.60;93.70;;;;;;4079454;29;20036;-59
2023/04/16 10:30:38;;;;;;;5.72;1.52;;;16.70;93.50;;;;;;4080622;29;20089;-59
2023/04/16 10:32:40;;;;;;;3.90;1.42;;;16.70;93.70;;;;;;4078924;29;20039;-59